createdAt,value
2023-01-01T00:00:50.864Z,7.08
2023-01-01T00:03:39.233Z,7.03
2023-01-01T00:06:13.925Z,6.95
2023-01-01T00:08:42.636Z,6.84
2023-01-01T00:11:11.507Z,6.84
2023-01-01T00:13:41.056Z,6.92
2023-01-01T00:16:12.321Z,7.01
2023-01-01T00:18:41.019Z,6.98
2023-01-01T00:21:14.281Z,6.92
2023-01-01T00:23:42.301Z,6.89
2023-01-01T00:26:12.883Z,6.85
2023-01-01T00:28:41.098Z,6.86
2023-01-01T00:31:17.376Z,6.80
2023-01-01T00:33:47.226Z,6.82
2023-01-01T00:36:34.729Z,6.82
2023-01-01T00:39:03.933Z,6.77
2023-01-01T00:41:51.346Z,6.63
2023-01-01T00:44:19.504Z,6.59
2023-01-01T00:46:47.734Z,6.49
2023-01-01T00:49:15.843Z,6.54
2023-01-01T00:51:51.106Z,6.63
2023-01-01T00:54:19.601Z,6.66
2023-01-01T00:56:47.949Z,6.68
2023-01-01T00:59:37.003Z,6.65
2023-01-01T01:02:06.057Z,6.54
2023-01-01T01:04:34.385Z,6.45
2023-01-01T01:07:10.972Z,6.40
2023-01-01T01:09:39.470Z,6.39
2023-01-01T01:12:17.942Z,6.42
2023-01-01T01:14:47.438Z,6.40
2023-01-01T01:17:15.508Z,6.31
2023-01-01T01:19:43.559Z,6.31
2023-01-01T01:22:11.565Z,6.41
2023-01-01T01:24:39.621Z,6.44
2023-01-01T01:27:07.705Z,6.32
2023-01-01T01:29:35.733Z,6.23
2023-01-01T01:32:04.003Z,6.16
2023-01-01T01:34:32.154Z,6.16
2023-01-01T01:37:00.176Z,6.20
2023-01-01T01:39:28.215Z,6.22
2023-01-01T01:42:04.062Z,6.67
2023-01-01T01:45:02.698Z,6.96
2023-01-01T01:47:56.859Z,6.85
2023-01-01T01:50:31.862Z,6.57
2023-01-01T01:53:16.039Z,6.50
2023-01-01T01:56:21.933Z,6.41
2023-01-01T01:58:50.362Z,6.32
2023-01-01T02:01:19.153Z,6.34
2023-01-01T02:04:07.366Z,6.54
2023-01-01T02:06:36.031Z,6.67
2023-01-01T02:09:05.732Z,6.81
2023-01-01T02:11:40.657Z,6.83
2023-01-01T02:14:14.516Z,6.84
2023-01-01T02:16:55.728Z,6.78
2023-01-01T02:19:41.089Z,6.75
2023-01-01T02:22:24.732Z,6.75
2023-01-01T02:25:10.040Z,6.70
2023-01-01T02:28:07.161Z,6.79
2023-01-01T02:30:48.037Z,6.78
2023-01-01T02:33:24.852Z,6.66
2023-01-01T02:36:04.611Z,6.60
2023-01-01T02:38:55.249Z,6.65
2023-01-01T02:41:32.883Z,6.65
2023-01-01T02:44:22.459Z,6.59
2023-01-01T02:46:56.081Z,6.57
2023-01-01T02:49:32.424Z,6.55
2023-01-01T02:52:21.754Z,6.50
2023-01-01T02:55:07.485Z,6.45
2023-01-01T02:57:51.176Z,6.41
2023-01-01T03:03:56.251Z,6.52
2023-01-01T03:06:42.216Z,6.52
2023-01-01T03:09:56.785Z,6.43
2023-01-01T03:12:57.093Z,6.29
2023-01-01T03:15:40.151Z,6.26
2023-01-01T03:18:52.358Z,6.34
2023-01-01T03:22:14.179Z,6.49
2023-01-01T03:25:33.037Z,6.51
2023-01-01T03:28:20.878Z,6.47
2023-01-01T03:31:17.967Z,6.59
2023-01-01T03:34:06.966Z,7.15
2023-01-01T03:37:03.121Z,7.67
2023-01-01T03:39:46.881Z,7.93
2023-01-01T03:42:32.261Z,8.08
2023-01-01T03:45:05.234Z,8.10
2023-01-01T03:47:40.303Z,8.05
2023-01-01T03:50:16.224Z,7.99
2023-01-01T03:53:11.410Z,7.78
2023-01-01T03:55:48.837Z,7.63
2023-01-01T03:58:32.614Z,7.58
2023-01-01T04:01:16.566Z,7.43
2023-01-01T04:04:05.547Z,7.27
2023-01-01T04:06:41.597Z,7.09
2023-01-01T04:09:33.463Z,7.06
2023-01-01T04:12:02.109Z,7.06
2023-01-01T04:14:39.314Z,7.10
2023-01-01T04:17:10.178Z,7.16
2023-01-01T04:19:38.451Z,7.15
2023-01-01T04:22:06.800Z,7.06
2023-01-01T04:24:54.086Z,6.99
2023-01-01T04:27:27.681Z,6.89
2023-01-01T04:30:04.676Z,6.87
2023-01-01T04:32:38.733Z,6.84
2023-01-01T04:35:15.274Z,6.82
2023-01-01T04:37:51.225Z,6.79
2023-01-01T04:40:19.282Z,6.79
2023-01-01T04:42:54.515Z,6.79
2023-01-01T04:45:30.749Z,6.90
2023-01-01T04:48:04.336Z,6.93
2023-01-01T04:50:32.445Z,7.04
2023-01-01T04:53:08.926Z,7.16
2023-01-01T04:55:44.871Z,7.23
2023-01-01T04:58:35.577Z,7.42
2023-01-01T05:01:24.686Z,7.44
2023-01-01T05:04:01.573Z,7.36
2023-01-01T05:06:37.824Z,7.47
2023-01-01T05:09:05.813Z,7.79
2023-01-01T05:11:33.828Z,8.04
2023-01-01T05:14:02.393Z,8.29
2023-01-01T05:16:32.892Z,8.47
2023-01-01T05:19:01.191Z,8.74
2023-01-01T05:21:32.694Z,8.97
2023-01-01T05:24:10.405Z,9.04
2023-01-01T05:26:47.372Z,9.22
2023-01-01T05:29:24.432Z,9.29
2023-01-01T05:31:58.179Z,9.31
2023-01-01T05:37:09.753Z,8.87
2023-01-01T05:39:37.696Z,8.76
2023-01-01T05:42:05.683Z,8.76
2023-01-01T05:44:33.660Z,8.75
2023-01-01T05:47:01.619Z,8.71
2023-01-01T05:49:29.574Z,8.51
2023-01-01T05:51:57.545Z,8.42
2023-01-01T05:54:25.420Z,8.42
2023-01-01T05:56:53.355Z,8.43
2023-01-01T05:59:21.304Z,8.38
2023-01-01T06:01:49.293Z,8.26
2023-01-01T06:04:17.401Z,8.14
2023-01-01T06:06:45.320Z,8.17
2023-01-01T06:09:13.353Z,8.32
2023-01-01T06:11:41.401Z,8.47
2023-01-01T06:14:09.570Z,8.56
2023-01-01T06:16:37.591Z,8.64
2023-01-01T06:19:05.599Z,8.69
2023-01-01T06:21:33.701Z,8.75
2023-01-01T06:24:01.755Z,8.77
2023-01-01T06:26:32.414Z,8.80
2023-01-01T06:29:02.901Z,8.79
2023-01-01T06:31:36.830Z,8.79
2023-01-01T06:34:08.918Z,8.82
2023-01-01T06:36:36.951Z,8.83
2023-01-01T06:39:05.580Z,8.86
2023-01-01T06:41:33.547Z,8.86
2023-01-01T06:44:02.299Z,8.86
2023-01-01T06:46:32.765Z,8.82
2023-01-01T06:49:06.165Z,8.81
2023-01-01T06:51:38.564Z,8.80
2023-01-01T06:54:07.221Z,8.82
2023-01-01T06:56:35.920Z,8.88
2023-01-01T06:59:05.345Z,8.94
2023-01-01T07:01:39.962Z,8.98
2023-01-01T07:04:15.848Z,9.02
2023-01-01T07:06:49.162Z,9.04
2023-01-01T07:09:27.108Z,9.07
2023-01-01T07:12:32.127Z,9.13
2023-01-01T07:19:06.178Z,9.26
2023-01-01T07:21:45.446Z,9.32
2023-01-01T07:24:15.539Z,9.37
2023-01-01T07:26:44.744Z,9.42
2023-01-01T07:29:15.545Z,9.43
2023-01-01T07:31:45.056Z,9.47
2023-01-01T07:34:16.120Z,9.52
2023-01-01T07:36:44.176Z,9.55
2023-01-01T07:39:12.916Z,9.56
2023-01-01T07:41:43.241Z,9.58
2023-01-01T07:44:14.276Z,9.60
2023-01-01T07:46:42.433Z,9.63
2023-01-01T07:49:10.558Z,9.68
2023-01-01T07:51:38.493Z,9.72
2023-01-01T07:54:07.632Z,9.73
2023-01-01T07:56:36.504Z,9.74
2023-01-01T07:59:05.385Z,9.72
2023-01-01T08:01:36.430Z,9.72
2023-01-01T08:04:05.506Z,9.73
2023-01-01T08:06:33.579Z,9.77
2023-01-01T08:09:01.555Z,9.78
2023-01-01T08:11:29.866Z,9.76
2023-01-01T08:13:57.786Z,9.76
2023-01-01T08:16:25.908Z,9.75
2023-01-01T08:18:53.879Z,9.76
2023-01-01T08:21:21.897Z,9.79
2023-01-01T08:23:49.748Z,9.83
2023-01-01T08:26:18.873Z,9.84
2023-01-01T08:28:49.711Z,9.83
2023-01-01T08:31:21.645Z,9.83
2023-01-01T08:33:49.658Z,9.83
2023-01-01T08:36:17.840Z,9.82
2023-01-01T08:38:45.801Z,9.84
2023-01-01T08:41:13.839Z,9.86
2023-01-01T08:43:41.910Z,9.88
2023-01-01T08:46:09.860Z,9.87
2023-01-01T08:48:37.954Z,9.84
2023-01-01T08:51:06.105Z,9.83
2023-01-01T08:53:34.132Z,9.84
2023-01-01T08:56:05.590Z,9.86
2023-01-01T08:58:36.193Z,9.88
2023-01-01T09:01:05.499Z,9.93
2023-01-01T09:03:34.329Z,9.96
2023-01-01T09:06:02.694Z,9.98
2023-01-01T09:09:46.819Z,9.97
2023-01-01T09:12:16.792Z,9.93
2023-01-01T09:14:47.562Z,9.89
2023-01-01T09:17:21.271Z,9.86
2023-01-01T09:19:49.238Z,9.81
2023-01-01T09:22:17.257Z,9.79
2023-01-01T09:24:45.256Z,9.83
2023-01-01T09:27:13.278Z,9.90
2023-01-01T09:29:41.253Z,10.00
2023-01-01T09:32:09.228Z,10.09
2023-01-01T09:34:37.212Z,10.17
2023-01-01T09:37:05.111Z,10.25
2023-01-01T09:39:33.217Z,10.34
2023-01-01T09:46:31.201Z,10.53
2023-01-01T09:49:03.570Z,10.58
2023-01-01T09:51:38.801Z,10.64
2023-01-01T09:54:35.891Z,10.73
2023-01-01T09:57:16.408Z,10.84
2023-01-01T09:59:47.755Z,10.95
2023-01-01T10:02:48.188Z,11.04
2023-01-01T10:05:32.600Z,11.14
2023-01-01T10:08:32.043Z,11.20
2023-01-01T10:11:11.547Z,11.26
2023-01-01T10:13:43.260Z,11.30
2023-01-01T10:16:24.796Z,11.33
2023-01-01T10:18:56.989Z,11.42
2023-01-01T10:21:30.448Z,11.52
2023-01-01T10:24:04.699Z,11.62
2023-01-01T10:26:37.413Z,11.69
2023-01-01T10:29:37.105Z,11.78
2023-01-01T10:32:35.164Z,11.88
2023-01-01T10:35:12.656Z,11.97
2023-01-01T10:42:03.549Z,12.21
2023-01-01T10:44:34.565Z,12.31
2023-01-01T10:47:32.225Z,12.41
2023-01-01T10:50:04.557Z,12.51
2023-01-01T10:52:38.644Z,12.62
2023-01-01T10:55:28.742Z,12.75
2023-01-01T10:57:56.690Z,12.88
2023-01-01T11:00:27.972Z,12.99
2023-01-01T11:03:21.958Z,13.12
2023-01-01T11:06:24.140Z,13.30
2023-01-01T11:08:54.795Z,13.45
2023-01-01T11:11:26.727Z,13.59
2023-01-01T11:13:57.781Z,13.76
2023-01-01T11:16:28.123Z,13.91
2023-01-01T11:19:28.794Z,14.05
2023-01-01T11:22:00.182Z,14.26
2023-01-01T11:24:31.200Z,14.43
2023-01-01T11:27:25.236Z,14.72
2023-01-01T11:30:19.177Z,15.02
2023-01-01T11:32:55.127Z,15.26
2023-01-01T11:35:27.142Z,15.57
2023-01-01T11:37:57.797Z,16.07
2023-01-01T11:40:57.210Z,16.72
2023-01-01T11:43:29.065Z,17.46
2023-01-01T11:45:58.909Z,17.99
2023-01-01T11:48:31.598Z,18.55
2023-01-01T11:51:06.306Z,18.74
2023-01-01T11:53:38.272Z,19.00
2023-01-01T11:56:22.794Z,19.40
2023-01-01T11:58:56.141Z,19.94
2023-01-01T12:01:42.917Z,20.34
2023-01-01T12:04:20.027Z,20.58
2023-01-01T12:06:54.273Z,20.47
2023-01-01T12:09:45.312Z,20.49
2023-01-01T12:12:26.533Z,20.55
2023-01-01T12:15:13.237Z,20.65
2023-01-01T12:17:50.138Z,20.62
2023-01-01T12:20:40.621Z,20.60
2023-01-01T12:23:11.043Z,20.86
2023-01-01T12:25:44.058Z,21.05
2023-01-01T12:28:22.044Z,20.99
2023-01-01T12:30:56.077Z,21.02
2023-01-01T12:33:29.989Z,21.19
2023-01-01T12:36:38.902Z,21.50
2023-01-01T12:39:34.973Z,21.65
2023-01-01T12:42:02.956Z,21.82
2023-01-01T12:44:57.613Z,21.73
2023-01-01T12:47:44.307Z,21.67
2023-01-01T12:50:51.422Z,21.28
2023-01-01T12:53:41.413Z,20.63
2023-01-01T12:56:31.687Z,20.41
2023-01-01T12:59:11.600Z,20.28
2023-01-01T13:02:19.965Z,19.95
2023-01-01T13:04:53.420Z,19.72
2023-01-01T13:07:28.604Z,19.69
2023-01-01T13:09:59.235Z,19.64
2023-01-01T13:12:27.953Z,19.74
2023-01-01T13:14:56.049Z,19.59
2023-01-01T13:17:28.031Z,19.55
2023-01-01T13:19:59.591Z,19.56
2023-01-01T13:22:34.530Z,19.39
2023-01-01T13:25:24.047Z,19.34
2023-01-01T13:28:05.130Z,19.28
2023-01-01T13:30:36.462Z,19.01
2023-01-01T13:33:35.145Z,18.63
2023-01-01T13:36:12.531Z,18.07
2023-01-01T13:38:56.670Z,18.41
2023-01-01T13:41:45.827Z,18.77
2023-01-01T13:44:19.955Z,19.07
2023-01-01T13:46:59.595Z,19.48
2023-01-01T13:50:00.420Z,19.81
2023-01-01T13:52:57.993Z,19.82
2023-01-01T13:55:39.022Z,19.62
2023-01-01T13:58:25.498Z,19.44
2023-01-01T14:01:12.204Z,18.99
2023-01-01T14:03:44.777Z,18.52
2023-01-01T14:06:23.693Z,17.82
2023-01-01T14:09:13.291Z,17.06
2023-01-01T14:11:42.321Z,16.42
2023-01-01T14:14:24.457Z,15.95
2023-01-01T14:16:58.960Z,15.59
2023-01-01T14:19:29.220Z,15.29
2023-01-01T14:21:57.700Z,15.10
2023-01-01T14:24:27.394Z,15.14
2023-01-01T14:26:55.763Z,15.23
2023-01-01T14:29:30.540Z,15.42
2023-01-01T14:32:02.582Z,15.49
2023-01-01T14:34:33.219Z,15.41
2023-01-01T14:41:39.842Z,15.08
2023-01-01T14:45:23.058Z,14.86
2023-01-01T14:47:54.763Z,14.52
2023-01-01T14:50:30.057Z,14.32
2023-01-01T14:53:13.765Z,14.06
2023-01-01T14:55:56.025Z,13.87
2023-01-01T14:58:28.673Z,13.65
2023-01-01T15:01:18.640Z,13.50
2023-01-01T15:04:13.678Z,13.31
2023-01-01T15:06:42.246Z,13.16
2023-01-01T15:09:21.707Z,13.03
2023-01-01T15:11:57.842Z,12.91
2023-01-01T15:14:42.806Z,12.79
2023-01-01T15:17:13.522Z,12.59
2023-01-01T15:20:07.599Z,12.55
2023-01-01T15:22:41.037Z,12.40
2023-01-01T15:25:14.624Z,12.27
2023-01-01T15:27:49.644Z,12.16
2023-01-01T15:34:14.294Z,11.84
2023-01-01T15:36:42.821Z,11.67
2023-01-01T15:39:46.270Z,11.55
2023-01-01T15:42:39.939Z,11.43
2023-01-01T15:45:38.277Z,11.50
2023-01-01T15:48:06.962Z,11.43
2023-01-01T15:50:40.434Z,11.45
2023-01-01T15:53:20.240Z,11.44
2023-01-01T15:56:12.914Z,11.41
2023-01-01T15:59:05.071Z,11.38
2023-01-01T16:05:55.759Z,11.28
2023-01-01T16:08:25.217Z,11.28
2023-01-01T16:10:53.377Z,11.25
2023-01-01T16:13:21.488Z,11.22
2023-01-01T16:16:00.174Z,11.18
2023-01-01T16:18:37.570Z,11.12
2023-01-01T16:21:06.097Z,11.06
2023-01-01T16:23:34.153Z,11.01
2023-01-01T16:26:02.275Z,11.02
2023-01-01T16:28:31.111Z,11.02
2023-01-01T16:30:59.212Z,11.01
2023-01-01T16:33:28.311Z,11.01
2023-01-01T16:35:56.393Z,10.98
2023-01-01T16:38:24.501Z,10.99
2023-01-01T16:40:52.841Z,10.93
2023-01-01T16:43:20.978Z,10.84
2023-01-01T16:45:48.988Z,10.78
2023-01-01T16:48:16.947Z,10.73
2023-01-01T16:50:44.902Z,10.72
2023-01-01T16:53:12.822Z,10.69
2023-01-01T16:55:40.745Z,10.66
2023-01-01T16:58:47.362Z,10.61
2023-01-01T17:01:00.839Z,10.58
2023-01-01T17:03:28.986Z,10.57
2023-01-01T17:05:57.058Z,10.55
2023-01-01T17:08:25.047Z,10.53
2023-01-01T17:11:09.639Z,10.47
2023-01-01T17:13:44.649Z,10.38
2023-01-01T17:16:17.826Z,10.27
2023-01-01T17:21:46.799Z,10.02
2023-01-01T17:24:17.042Z,9.84
2023-01-01T17:27:39.115Z,9.65
2023-01-01T17:30:08.076Z,9.47
2023-01-01T17:33:03.684Z,9.34
2023-01-01T17:35:33.674Z,9.25
2023-01-01T17:38:07.661Z,9.19
2023-01-01T17:40:37.221Z,9.13
2023-01-01T17:43:08.029Z,9.05
2023-01-01T17:45:37.055Z,8.99
2023-01-01T17:48:05.360Z,8.88
2023-01-01T17:50:34.420Z,8.83
2023-01-01T17:53:02.588Z,8.90
2023-01-01T17:55:30.616Z,8.95
2023-01-01T17:57:58.636Z,8.97
2023-01-01T18:00:29.322Z,8.95
2023-01-01T18:02:57.375Z,8.93
2023-01-01T18:05:26.981Z,8.88
2023-01-01T18:07:55.268Z,8.80
2023-01-01T18:10:23.723Z,8.75
2023-01-01T18:12:52.130Z,8.69
2023-01-01T18:15:20.457Z,8.67
2023-01-01T18:17:48.506Z,8.58
2023-01-01T18:20:19.979Z,8.49
2023-01-01T18:22:48.917Z,8.40
2023-01-01T18:25:19.184Z,8.28
2023-01-01T18:27:50.101Z,8.16
2023-01-01T18:30:22.669Z,8.08
2023-01-01T18:32:50.739Z,7.98
2023-01-01T18:35:18.779Z,7.91
2023-01-01T18:37:47.006Z,7.85
2023-01-01T18:40:17.348Z,7.71
2023-01-01T18:42:51.368Z,7.49
2023-01-01T18:45:22.706Z,7.34
2023-01-01T18:47:50.722Z,7.25
2023-01-01T18:50:29.903Z,7.17
2023-01-01T18:53:17.130Z,7.05
2023-01-01T18:56:02.917Z,6.81
2023-01-01T18:58:33.039Z,6.73
2023-01-01T19:01:01.265Z,6.66
2023-01-01T19:03:29.414Z,6.53
2023-01-01T19:05:59.745Z,6.34
2023-01-01T19:08:29.731Z,6.27
2023-01-01T19:11:01.950Z,6.27
2023-01-01T19:13:33.180Z,6.12
2023-01-01T19:16:11.551Z,5.92
2023-01-01T19:18:44.957Z,5.76
2023-01-01T19:21:12.957Z,5.66
2023-01-01T19:23:58.676Z,5.60
2023-01-01T19:26:40.223Z,5.77
2023-01-01T19:29:15.894Z,5.92
2023-01-01T19:31:48.830Z,6.02
2023-01-01T19:34:17.411Z,5.90
2023-01-01T19:36:46.449Z,5.84
2023-01-01T19:39:15.787Z,5.84
2023-01-01T19:41:44.500Z,5.71
2023-01-01T19:44:17.301Z,5.63
2023-01-01T19:46:48.027Z,5.54
2023-01-01T19:49:17.755Z,5.45
2023-01-01T19:51:48.824Z,5.48
2023-01-01T19:57:00.642Z,5.46
2023-01-01T19:59:32.965Z,5.53
2023-01-01T20:04:56.457Z,5.49
2023-01-01T20:11:36.164Z,5.54
2023-01-01T20:14:04.325Z,6.20
2023-01-01T20:16:35.140Z,6.40
2023-01-01T20:19:06.162Z,6.46
2023-01-01T20:21:58.479Z,6.75
2023-01-01T20:24:27.210Z,7.24
2023-01-01T20:26:56.590Z,7.34
2023-01-01T20:29:24.869Z,7.18
2023-01-01T20:31:54.058Z,7.04
2023-01-01T20:34:23.206Z,6.86
2023-01-01T20:37:10.423Z,6.86
2023-01-01T20:39:39.325Z,7.14
2023-01-01T20:42:07.457Z,6.86
2023-01-01T20:44:36.071Z,6.59
2023-01-01T20:47:04.354Z,6.27
2023-01-01T20:49:32.461Z,6.03
2023-01-01T20:52:00.794Z,5.75
2023-01-01T20:54:28.929Z,5.55
2023-01-01T20:56:57.406Z,5.42
2023-01-01T20:59:38.678Z,5.30
2023-01-01T21:02:11.712Z,5.17
2023-01-01T21:04:40.555Z,5.05
2023-01-01T21:07:10.353Z,4.99
2023-01-01T21:09:39.737Z,4.84
2023-01-01T21:12:08.211Z,4.80
2023-01-01T21:14:36.491Z,4.77
2023-01-01T21:17:24.501Z,4.80
2023-01-01T21:19:55.808Z,4.84
2023-01-01T21:22:23.919Z,4.83
2023-01-01T21:24:54.734Z,4.75
2023-01-01T21:27:31.988Z,4.67
2023-01-01T21:30:11.836Z,4.66
2023-01-01T21:32:42.345Z,4.58
2023-01-01T21:35:43.734Z,4.59
2023-01-01T21:38:26.683Z,4.60
2023-01-01T21:40:59.667Z,4.52
2023-01-01T21:43:44.522Z,4.42
2023-01-01T21:46:17.093Z,4.38
2023-01-01T21:48:50.074Z,4.37
2023-01-01T21:51:52.377Z,4.38
2023-01-01T21:54:40.618Z,4.38
2023-01-01T21:57:18.388Z,4.38
2023-01-01T21:59:47.309Z,4.44
2023-01-01T22:02:30.520Z,4.80
2023-01-01T22:05:01.488Z,5.23
2023-01-01T22:10:49.147Z,5.00
2023-01-01T22:13:19.438Z,4.92
2023-01-01T22:15:47.484Z,4.80
2023-01-01T22:18:21.863Z,4.67
2023-01-01T22:20:50.671Z,4.61
2023-01-01T22:23:26.696Z,4.54
2023-01-01T22:25:54.688Z,4.49
2023-01-01T22:28:27.920Z,4.46
2023-01-01T22:30:58.645Z,4.36
2023-01-01T22:33:38.284Z,4.29
2023-01-01T22:36:32.055Z,4.22
2023-01-01T22:39:12.194Z,4.12
2023-01-01T22:41:41.413Z,4.16
2023-01-01T22:44:14.527Z,4.76
2023-01-01T22:46:42.824Z,5.52
2023-01-01T22:49:26.279Z,5.64
2023-01-01T22:52:24.271Z,5.38
2023-01-01T22:54:52.269Z,5.11
2023-01-01T22:57:20.183Z,4.88
2023-01-01T22:59:48.227Z,4.73
2023-01-01T23:02:16.362Z,4.60
2023-01-01T23:04:44.412Z,4.44
2023-01-01T23:07:14.603Z,4.28
2023-01-01T23:09:42.949Z,4.16
2023-01-01T23:12:11.084Z,4.21
2023-01-01T23:14:57.815Z,4.46
2023-01-01T23:17:27.623Z,4.49
2023-01-01T23:19:58.459Z,4.40
2023-01-01T23:22:29.654Z,4.30
2023-01-01T23:24:57.951Z,4.20
2023-01-01T23:27:26.181Z,4.11
2023-01-01T23:29:54.668Z,4.01
2023-01-01T23:32:22.690Z,3.96
2023-01-01T23:34:50.674Z,3.91
2023-01-01T23:37:18.955Z,3.91
2023-01-01T23:39:46.925Z,3.86
2023-01-01T23:42:14.891Z,3.81
2023-01-01T23:44:42.984Z,3.79
2023-01-01T23:47:12.178Z,3.76
2023-01-01T23:49:42.053Z,3.75
2023-01-01T23:52:10.082Z,3.71
2023-01-01T23:59:21.068Z,3.78
